sensor_id;sensor_type;location;lat;lon;timestamp;pressure;altitude;pressure_sealevel;temperature;humidity
43703;BME280;29304;56.146;40.396;2022-08-19T00:00:06;100409.97;;;21.92;100.00
43703;BME280;29304;56.146;40.396;2022-08-19T00:00:18;100411.53;;;21.95;100.00
43703;BME280;29304;56.146;40.396;2022-08-19T00:00:29;100410.13;;;21.91;100.00
43703;BME280;29304;56.146;40.396;2022-08-19T00:00:39;100414.06;;;21.96;100.00
43703;BME280;29304;56.146;40.396;2022-08-19T00:00:50;100411.66;;;21.93;100.00
43703;BME280;29304;56.146;40.396;2022-08-19T00:01:00;100420.34;;;21.95;100.00
43703;BME280;29304;56.146;40.396;2022-08-19T00:01:11;100418.66;;;21.94;100.00
43703;BME280;29304;56.146;40.396;2022-08-19T00:01:22;100410.97;;;21.91;100.00
43703;BME280;29304;56.146;40.396;2022-08-19T00:01:35;100416.88;;;21.95;100.00
43703;BME280;29304;56.146;40.396;2022-08-19T00:01:49;100414.31;;;21.93;100.00
43703;BME280;29304;56.146;40.396;2022-08-19T00:01:59;100393.28;;;21.80;100.00
43703;BME280;29304;56.146;40.396;2022-08-19T00:02:10;100410.69;;;21.94;100.00
43703;BME280;29304;56.146;40.396;2022-08-19T00:02:20;100411.41;;;21.96;100.00
43703;BME280;29304;56.146;40.396;2022-08-19T00:02:30;100421.91;;;21.98;100.00
43703;BME280;29304;56.146;40.396;2022-08-19T00:02:41;100418.56;;;21.96;100.00
43703;BME280;29304;56.146;40.396;2022-08-19T00:02:52;100408.72;;;21.86;100.00
43703;BME280;29304;56.146;40.396;2022-08-19T00:03:03;100417.25;;;21.90;100.00
43703;BME280;29304;56.146;40.396;2022-08-19T00:03:13;100420.78;;;21.91;100.00
43703;BME280;29304;56.146;40.396;2022-08-19T00:03:24;100416.44;;;21.89;100.00
43703;BME280;29304;56.146;40.396;2022-08-19T00:03:34;100420.78;;;21.91;100.00
43703;BME280;29304;56.146;40.396;2022-08-19T00:03:45;100421.19;;;21.86;100.00
43703;BME280;29304;56.146;40.396;2022-08-19T00:04:00;100416.25;;;21.81;100.00
43703;BME280;29304;56.146;40.396;2022-08-19T00:04:14;100421.00;;;21.78;100.00
43703;BME280;29304;56.146;40.396;2022-08-19T00:04:32;100421.72;;;21.80;100.00
43703;BME280;29304;56.146;40.396;2022-08-19T00:04:44;100417.94;;;21.82;100.00
43703;BME280;29304;56.146;40.396;2022-08-19T00:04:58;100410.38;;;21.78;100.00
43703;BME280;29304;56.146;40.396;2022-08-19T00:05:10;100415.97;;;21.84;100.00
43703;BME280;29304;56.146;40.396;2022-08-19T00:05:21;100422.97;;;21.85;100.00
43703;BME280;29304;56.146;40.396;2022-08-19T00:05:32;100415.00;;;21.85;100.00
43703;BME280;29304;56.146;40.396;2022-08-19T00:05:43;100396.19;;;21.67;100.00
43703;BME280;29304;56.146;40.396;2022-08-19T00:05:53;100421.72;;;21.80;100.00
43703;BME280;29304;56.146;40.396;2022-08-19T00:06:04;100416.84;;;21.85;100.00
43703;BME280;29304;56.146;40.396;2022-08-19T00:06:15;100404.91;;;21.79;100.00
43703;BME280;29304;56.146;40.396;2022-08-19T00:06:27;100416.69;;;21.86;100.00
43703;BME280;29304;56.146;40.396;2022-08-19T00:06:40;100409.50;;;21.77;100.00
43703;BME280;29304;56.146;40.396;2022-08-19T00:06:51;100414.00;;;21.77;100.00
43703;BME280;29304;56.146;40.396;2022-08-19T00:07:04;100418.19;;;21.79;100.00
43703;BME280;29304;56.146;40.396;2022-08-19T00:07:15;100418.91;;;21.81;100.00
43703;BME280;29304;56.146;40.396;2022-08-19T00:07:25;100418.78;;;21.83;100.00
43703;BME280;29304;56.146;40.396;2022-08-19T00:07:36;100411.09;;;21.80;100.00
43703;BME280;29304;56.146;40.396;2022-08-19T00:07:48;100416.13;;;21.83;100.00
43703;BME280;29304;56.146;40.396;2022-08-19T00:07:59;100410.22;;;21.79;100.00
43703;BME280;29304;56.146;40.396;2022-08-19T00:08:09;100415.16;;;21.84;100.00
43703;BME280;29304;56.146;40.396;2022-08-19T00:08:20;100421.31;;;21.84;100.00
43703;BME280;29304;56.146;40.396;2022-08-19T00:08:30;100410.94;;;21.81;100.00
43703;BME280;29304;56.146;40.396;2022-08-19T00:08:41;100407.00;;;21.76;100.00
43703;BME280;29304;56.146;40.396;2022-08-19T00:08:51;100427.47;;;21.85;100.00
43703;BME280;29304;56.146;40.396;2022-08-19T00:09:04;100420.47;;;21.84;100.00
43703;BME280;29304;56.146;40.396;2022-08-19T00:09:17;100412.31;;;21.76;100.00
43703;BME280;29304;56.146;40.396;2022-08-19T00:09:29;100412.44;;;21.74;100.00
43703;BME280;29304;56.146;40.396;2022-08-19T00:09:39;100422.69;;;21.79;100.00
43703;BME280;29304;56.146;40.396;2022-08-19T00:09:49;100425.47;;;21.77;100.00
43703;BME280;29304;56.146;40.396;2022-08-19T00:10:00;100418.63;;;21.74;100.00
43703;BME280;29304;56.146;40.396;2022-08-19T00:10:12;100420.03;;;21.79;100.00
43703;BME280;29304;56.146;40.396;2022-08-19T00:10:24;100392.13;;;21.63;100.00
43703;BME280;29304;56.146;40.396;2022-08-19T00:10:34;100420.84;;;21.79;100.00
43703;BME280;29304;56.146;40.396;2022-08-19T00:10:45;100412.44;;;21.74;100.00
43703;BME280;29304;56.146;40.396;2022-08-19T00:10:56;100423.78;;;21.76;100.00
43703;BME280;29304;56.146;40.396;2022-08-19T00:11:06;100418.63;;;21.74;100.00
43703;BME280;29304;56.146;40.396;2022-08-19T00:11:17;100422.25;;;21.73;100.00
43703;BME280;29304;56.146;40.396;2022-08-19T00:11:28;100427.16;;;21.78;100.00
43703;BME280;29304;56.146;40.396;2022-08-19T00:11:39;100401.63;;;21.66;100.00
43703;BME280;29304;56.146;40.396;2022-08-19T00:11:52;100426.19;;;21.79;100.00
43703;BME280;29304;56.146;40.396;2022-08-19T00:12:03;100425.47;;;21.77;100.00
43703;BME280;29304;56.146;40.396;2022-08-19T00:12:13;100425.28;;;21.69;100.00
43703;BME280;29304;56.146;40.396;2022-08-19T00:12:25;100419.53;;;21.64;100.00
43703;BME280;29304;56.146;40.396;2022-08-19T00:12:36;100430.16;;;21.64;100.00
43703;BME280;29304;56.146;40.396;2022-08-19T00:12:48;100431.13;;;21.63;100.00
43703;BME280;29304;56.146;40.396;2022-08-19T00:12:58;100430.88;;;21.66;100.00
43703;BME280;29304;56.146;40.396;2022-08-19T00:13:08;100431.84;;;21.65;100.00
43703;BME280;29304;56.146;40.396;2022-08-19T00:13:19;100425.94;;;21.61;100.00
43703;BME280;29304;56.146;40.396;2022-08-19T00:13:30;100431.00;;;21.64;100.00
43703;BME280;29304;56.146;40.396;2022-08-19T00:13:40;100437.75;;;21.68;100.00
43703;BME280;29304;56.146;40.396;2022-08-19T00:13:50;100432.56;;;21.67;100.00
43703;BME280;29304;56.146;40.396;2022-08-19T00:14:01;100433.41;;;21.67;100.00
43703;BME280;29304;56.146;40.396;2022-08-19T00:14:14;100401.56;;;21.56;100.00
43703;BME280;29304;56.146;40.396;2022-08-19T00:14:28;100424.19;;;21.71;100.00
43703;BME280;29304;56.146;40.396;2022-08-19T00:14:41;100420.22;;;21.66;100.00
43703;BME280;29304;56.146;40.396;2022-08-19T00:14:52;100427.69;;;21.72;100.00
43703;BME280;29304;56.146;40.396;2022-08-19T00:15:06;100430.06;;;21.75;100.00
43703;BME280;29304;56.146;40.396;2022-08-19T00:15:20;100429.25;;;21.74;100.00
43703;BME280;29304;56.146;40.396;2022-08-19T00:15:31;100426.72;;;21.73;100.00
43703;BME280;29304;56.146;40.396;2022-08-19T00:15:41;100428.81;;;21.69;100.00
43703;BME280;29304;56.146;40.396;2022-08-19T00:15:55;100431.00;;;21.64;100.00
43703;BME280;29304;56.146;40.396;2022-08-19T00:16:06;100429.78;;;21.68;100.00
43703;BME280;29304;56.146;40.396;2022-08-19T00:16:17;100427.94;;;21.69;100.00
43703;BME280;29304;56.146;40.396;2022-08-19T00:16:30;100436.78;;;21.69;100.00
43703;BME280;29304;56.146;40.396;2022-08-19T00:16:43;100421.09;;;21.66;100.00
43703;BME280;29304;56.146;40.396;2022-08-19T00:16:54;100422.50;;;21.70;100.00
43703;BME280;29304;56.146;40.396;2022-08-19T00:17:05;100423.34;;;21.71;100.00
43703;BME280;29304;56.146;40.396;2022-08-19T00:17:16;100427.81;;;21.70;100.00
43703;BME280;29304;56.146;40.396;2022-08-19T00:17:27;100423.75;;;21.66;100.00
43703;BME280;29304;56.146;40.396;2022-08-19T00:17:42;100419.41;;;21.65;100.00
43703;BME280;29304;56.146;40.396;2022-08-19T00:17:53;100437.75;;;21.68;100.00
43703;BME280;29304;56.146;40.396;2022-08-19T00:18:04;100436.06;;;21.67;100.00
43703;BME280;29304;56.146;40.396;2022-08-19T00:18:14;100431.13;;;21.63;100.00
43703;BME280;29304;56.146;40.396;2022-08-19T00:18:25;100425.47;;;21.56;100.00
43703;BME280;29304;56.146;40.396;2022-08-19T00:18:35;100425.88;;;21.51;100.00
43703;BME280;29304;56.146;40.396;2022-08-19T00:18:47;100422.09;;;21.54;100.00
43703;BME280;29304;56.146;40.396;2022-08-19T00:18:58;100431.13;;;21.63;100.00
43703;BME280;29304;56.146;40.396;2022-08-19T00:19:09;100434.00;;;21.59;100.00
43703;BME280;29304;56.146;40.396;2022-08-19T00:19:21;100434.88;;;21.60;100.00
43703;BME280;29304;56.146;40.396;2022-08-19T00:19:33;100430.78;;;21.56;100.00
43703;BME280;29304;56.146;40.396;2022-08-19T00:19:44;100432.34;;;21.58;100.00
43703;BME280;29304;56.146;40.396;2022-08-19T00:19:54;100435.00;;;21.58;100.00
43703;BME280;29304;56.146;40.396;2022-08-19T00:20:07;100423.34;;;21.50;100.00
43703;BME280;29304;56.146;40.396;2022-08-19T00:20:20;100432.03;;;21.52;100.00
43703;BME280;29304;56.146;40.396;2022-08-19T00:20:31;100424.06;;;21.52;100.00
43703;BME280;29304;56.146;40.396;2022-08-19T00:20:41;100435.25;;;21.55;100.00
43703;BME280;29304;56.146;40.396;2022-08-19T00:20:52;100438.19;;;21.52;100.00
43703;BME280;29304;56.146;40.396;2022-08-19T00:21:03;100426.97;;;21.49;100.00
43703;BME280;29304;56.146;40.396;2022-08-19T00:21:16;100439.28;;;21.50;100.00
43703;BME280;29304;56.146;40.396;2022-08-19T00:21:28;100434.84;;;21.50;100.00
43703;BME280;29304;56.146;40.396;2022-08-19T00:21:39;100434.94;;;21.49;100.00
43703;BME280;29304;56.146;40.396;2022-08-19T00:21:50;100431.47;;;21.48;100.00
43703;BME280;29304;56.146;40.396;2022-08-19T00:22:01;100439.56;;;21.47;100.00
43703;BME280;29304;56.146;40.396;2022-08-19T00:22:12;100431.13;;;21.41;100.00
43703;BME280;29304;56.146;40.396;2022-08-19T00:22:23;100443.59;;;21.41;100.00
43703;BME280;29304;56.146;40.396;2022-08-19T00:22:33;100442.16;;;21.37;100.00
43703;BME280;29304;56.146;40.396;2022-08-19T00:22:45;100413.25;;;21.22;100.00
43703;BME280;29304;56.146;40.396;2022-08-19T00:22:55;100432.34;;;21.37;100.00
43703;BME280;29304;56.146;40.396;2022-08-19T00:23:06;100435.63;;;21.41;100.00
43703;BME280;29304;56.146;40.396;2022-08-19T00:23:17;100431.28;;;21.40;100.00
43703;BME280;29304;56.146;40.396;2022-08-19T00:23:27;100435.47;;;21.42;100.00
43703;BME280;29304;56.146;40.396;2022-08-19T00:23:38;100427.91;;;21.38;100.00
43703;BME280;29304;56.146;40.396;2022-08-19T00:23:48;100420.03;;;21.36;100.00
43703;BME280;29304;56.146;40.396;2022-08-19T00:23:59;100435.34;;;21.44;100.00
43703;BME280;29304;56.146;40.396;2022-08-19T00:24:12;100435.63;;;21.41;100.00
43703;BME280;29304;56.146;40.396;2022-08-19T00:24:23;100435.88;;;21.38;100.00
43703;BME280;29304;56.146;40.396;2022-08-19T00:24:34;100432.09;;;21.40;100.00
43703;BME280;29304;56.146;40.396;2022-08-19T00:24:45;100439.69;;;21.45;100.00
43703;BME280;29304;56.146;40.396;2022-08-19T00:24:55;100428.34;;;21.43;100.00
43703;BME280;29304;56.146;40.396;2022-08-19T00:25:07;100433.25;;;21.48;100.00
43703;BME280;29304;56.146;40.396;2022-08-19T00:25:18;100426.06;;;21.38;100.00
43703;BME280;29304;56.146;40.396;2022-08-19T00:25:28;100429.78;;;21.47;100.00
43703;BME280;29304;56.146;40.396;2022-08-19T00:25:39;100438.47;;;21.49;100.00
43703;BME280;29304;56.146;40.396;2022-08-19T00:25:50;100423.88;;;21.43;100.00
43703;BME280;29304;56.146;40.396;2022-08-19T00:26:01;100432.44;;;21.47;100.00
43703;BME280;29304;56.146;40.396;2022-08-19T00:26:11;100434.94;;;21.49;100.00
43703;BME280;29304;56.146;40.396;2022-08-19T00:26:21;100433.97;;;21.50;100.00
43703;BME280;29304;56.146;40.396;2022-08-19T00:26:32;100440.25;;;21.49;100.00
43703;BME280;29304;56.146;40.396;2022-08-19T00:26:44;100434.94;;;21.49;100.00
43703;BME280;29304;56.146;40.396;2022-08-19T00:26:56;100438.47;;;21.49;100.00
43703;BME280;29304;56.146;40.396;2022-08-19T00:27:07;100423.59;;;21.47;100.00
43703;BME280;29304;56.146;40.396;2022-08-19T00:27:17;100437.59;;;21.49;100.00
43703;BME280;29304;56.146;40.396;2022-08-19T00:27:28;100435.91;;;21.48;100.00
43703;BME280;29304;56.146;40.396;2022-08-19T00:27:39;100430.88;;;21.44;100.00
43703;BME280;29304;56.146;40.396;2022-08-19T00:27:49;100432.44;;;21.47;100.00
43703;BME280;29304;56.146;40.396;2022-08-19T00:28:00;100439.03;;;21.53;100.00
43703;BME280;29304;56.146;40.396;2022-08-19T00:28:10;100431.31;;;21.50;100.00
43703;BME280;29304;56.146;40.396;2022-08-19T00:28:21;100437.34;;;21.52;100.00
43703;BME280;29304;56.146;40.396;2022-08-19T00:28:32;100429.91;;;21.45;100.00
43703;BME280;29304;56.146;40.396;2022-08-19T00:28:43;100420.44;;;21.32;100.00
43703;BME280;29304;56.146;40.396;2022-08-19T00:28:54;100436.31;;;21.43;100.00
43703;BME280;29304;56.146;40.396;2022-08-19T00:29:07;100405.03;;;21.25;100.00
43703;BME280;29304;56.146;40.396;2022-08-19T00:29:23;100435.63;;;21.41;100.00
43703;BME280;29304;56.146;40.396;2022-08-19T00:29:33;100427.75;;;21.39;100.00
43703;BME280;29304;56.146;40.396;2022-08-19T00:29:44;100426.94;;;21.39;100.00
43703;BME280;29304;56.146;40.396;2022-08-19T00:29:55;100430.41;;;21.39;100.00
43703;BME280;29304;56.146;40.396;2022-08-19T00:30:07;100426.66;;;21.42;100.00
43703;BME280;29304;56.146;40.396;2022-08-19T00:30:18;100430.88;;;21.44;100.00
43703;BME280;29304;56.146;40.396;2022-08-19T00:30:28;100428.47;;;21.41;100.00
43703;BME280;29304;56.146;40.396;2022-08-19T00:30:38;100420.19;;;21.35;100.00
43703;BME280;29304;56.146;40.396;2022-08-19T00:30:49;100433.78;;;21.41;100.00
43703;BME280;29304;56.146;40.396;2022-08-19T00:31:03;100429.97;;;21.34;100.00
43703;BME280;29304;56.146;40.396;2022-08-19T00:31:14;100425.63;;;21.33;100.00
43703;BME280;29304;56.146;40.396;2022-08-19T00:31:26;100430.94;;;21.33;100.00
43703;BME280;29304;56.146;40.396;2022-08-19T00:31:38;100432.88;;;21.31;100.00
43703;BME280;29304;56.146;40.396;2022-08-19T00:31:50;100427.97;;;21.26;100.00
43703;BME280;29304;56.146;40.396;2022-08-19T00:32:06;100441.09;;;21.28;100.00
43703;BME280;29304;56.146;40.396;2022-08-19T00:32:16;100412.75;;;21.07;100.00
43703;BME280;29304;56.146;40.396;2022-08-19T00:32:27;100438.00;;;21.23;100.00
43703;BME280;29304;56.146;40.396;2022-08-19T00:32:38;100434.38;;;21.24;100.00
43703;BME280;29304;56.146;40.396;2022-08-19T00:32:49;100436.66;;;21.28;100.00
43703;BME280;29304;56.146;40.396;2022-08-19T00:32:59;100429.75;;;21.26;100.00
43703;BME280;29304;56.146;40.396;2022-08-19T00:33:10;100439.06;;;21.32;100.00
43703;BME280;29304;56.146;40.396;2022-08-19T00:33:20;100437.22;;;21.32;100.00
43703;BME280;29304;56.146;40.396;2022-08-19T00:33:31;100423.75;;;21.24;100.00
43703;BME280;29304;56.146;40.396;2022-08-19T00:33:42;100427.09;;;21.26;100.00
43703;BME280;29304;56.146;40.396;2022-08-19T00:33:54;100432.41;;;21.26;100.00
43703;BME280;29304;56.146;40.396;2022-08-19T00:34:04;100421.78;;;21.26;100.00
43703;BME280;29304;56.146;40.396;2022-08-19T00:34:15;100427.44;;;21.33;100.00
43703;BME280;29304;56.146;40.396;2022-08-19T00:34:26;100438.06;;;21.33;100.00
43703;BME280;29304;56.146;40.396;2022-08-19T00:34:39;100437.94;;;21.34;100.00
43703;BME280;29304;56.146;40.396;2022-08-19T00:34:50;100435.16;;;21.36;100.00
43703;BME280;29304;56.146;40.396;2022-08-19T00:35:03;100427.81;;;21.28;100.00
43703;BME280;29304;56.146;40.396;2022-08-19T00:35:13;100432.88;;;21.31;100.00
43703;BME280;29304;56.146;40.396;2022-08-19T00:35:24;100431.59;;;21.25;100.00
43703;BME280;29304;56.146;40.396;2022-08-19T00:35:37;100439.69;;;21.24;100.00
43703;BME280;29304;56.146;40.396;2022-08-19T00:35:48;100434.25;;;21.25;100.00
43703;BME280;29304;56.146;40.396;2022-08-19T00:36:03;100434.97;;;21.27;100.00
43703;BME280;29304;56.146;40.396;2022-08-19T00:36:14;100433.13;;;21.28;100.00
43703;BME280;29304;56.146;40.396;2022-08-19T00:36:25;100428.34;;;21.22;100.00
43703;BME280;29304;56.146;40.396;2022-08-19T00:36:35;100437.56;;;21.18;100.00
43703;BME280;29304;56.146;40.396;2022-08-19T00:36:47;100428.16;;;21.13;100.00
43703;BME280;29304;56.146;40.396;2022-08-19T00:36:58;100440.06;;;21.19;100.00
43703;BME280;29304;56.146;40.396;2022-08-19T00:37:09;100429.59;;;21.18;100.00
43703;BME280;29304;56.146;40.396;2022-08-19T00:37:22;100429.97;;;21.13;100.00
43703;BME280;29304;56.146;40.396;2022-08-19T00:37:33;100435.16;;;21.14;100.00
43703;BME280;29304;56.146;40.396;2022-08-19T00:37:45;100433.47;;;21.13;100.00
43703;BME280;29304;56.146;40.396;2022-08-19T00:37:57;100440.94;;;21.20;100.00
43703;BME280;29304;56.146;40.396;2022-08-19T00:38:08;100429.47;;;21.19;100.00
43703;BME280;29304;56.146;40.396;2022-08-19T00:38:18;100433.66;;;21.22;100.00
43703;BME280;29304;56.146;40.396;2022-08-19T00:38:34;100434.91;;;21.18;100.00
43703;BME280;29304;56.146;40.396;2022-08-19T00:38:44;100432.50;;;21.14;100.00
43703;BME280;29304;56.146;40.396;2022-08-19T00:38:55;100427.25;;;21.03;100.00
43703;BME280;29304;56.146;40.396;2022-08-19T00:39:06;100423.13;;;21.10;100.00
43703;BME280;29304;56.146;40.396;2022-08-19T00:39:17;100423.84;;;21.12;100.00
43703;BME280;29304;56.146;40.396;2022-08-19T00:39:28;100437.09;;;21.12;100.00
43703;BME280;29304;56.146;40.396;2022-08-19T00:39:38;100435.94;;;21.05;100.00
43703;BME280;29304;56.146;40.396;2022-08-19T00:39:49;100435.06;;;21.05;100.00
43703;BME280;29304;56.146;40.396;2022-08-19T00:40:03;100429.66;;;21.06;100.00
43703;BME280;29304;56.146;40.396;2022-08-19T00:40:16;100434.09;;;21.06;100.00
43703;BME280;29304;56.146;40.396;2022-08-19T00:40:28;100430.28;;;20.98;100.00
43703;BME280;29304;56.146;40.396;2022-08-19T00:40:43;100437.88;;;21.03;100.00
43703;BME280;29304;56.146;40.396;2022-08-19T00:40:56;100437.88;;;21.03;100.00
43703;BME280;29304;56.146;40.396;2022-08-19T00:41:07;100436.75;;;21.06;100.00
43703;BME280;29304;56.146;40.396;2022-08-19T00:41:20;100434.50;;;21.01;100.00
43703;BME280;29304;56.146;40.396;2022-08-19T00:41:31;100426.78;;;20.98;100.00
43703;BME280;29304;56.146;40.396;2022-08-19T00:41:43;100431.00;;;21.00;100.00
43703;BME280;29304;56.146;40.396;2022-08-19T00:41:54;100430.03;;;21.01;100.00
43703;BME280;29304;56.146;40.396;2022-08-19T00:42:04;100432.56;;;21.03;100.00
43703;BME280;29304;56.146;40.396;2022-08-19T00:42:17;100432.56;;;21.03;100.00
43703;BME280;29304;56.146;40.396;2022-08-19T00:42:28;100427.75;;;20.97;100.00
43703;BME280;29304;56.146;40.396;2022-08-19T00:42:38;100438.38;;;20.97;100.00
43703;BME280;29304;56.146;40.396;2022-08-19T00:42:49;100433.19;;;20.95;100.00
43703;BME280;29304;56.146;40.396;2022-08-19T00:43:08;100425.88;;;20.88;100.00
43703;BME280;29304;56.146;40.396;2022-08-19T00:43:20;100435.00;;;20.95;100.00
43703;BME280;29304;56.146;40.396;2022-08-19T00:43:31;100430.41;;;20.97;100.00
43703;BME280;29304;56.146;40.396;2022-08-19T00:43:42;100433.31;;;20.94;100.00
43703;BME280;29304;56.146;40.396;2022-08-19T00:44:18;100428.28;;;20.91;100.00
43703;BME280;29304;56.146;40.396;2022-08-19T00:44:30;100425.16;;;20.85;100.00
43703;BME280;29304;56.146;40.396;2022-08-19T00:44:40;100432.88;;;20.89;100.00
43703;BME280;29304;56.146;40.396;2022-08-19T00:44:51;100429.09;;;20.91;100.00
43703;BME280;29304;56.146;40.396;2022-08-19T00:45:02;100435.00;;;20.95;100.00
43703;BME280;29304;56.146;40.396;2022-08-19T00:45:16;100432.47;;;20.93;100.00
43703;BME280;29304;56.146;40.396;2022-08-19T00:45:28;100420.94;;;20.83;100.00
43703;BME280;29304;56.146;40.396;2022-08-19T00:45:40;100434.28;;;20.93;100.00
43703;BME280;29304;56.146;40.396;2022-08-19T00:45:54;100444.53;;;20.97;100.00
43703;BME280;29304;56.146;40.396;2022-08-19T00:46:05;100442.72;;;20.98;100.00
43703;BME280;29304;56.146;40.396;2022-08-19T00:46:15;100419.59;;;20.89;100.00
43703;BME280;29304;56.146;40.396;2022-08-19T00:46:26;100433.31;;;20.94;100.00
43703;BME280;29304;56.146;40.396;2022-08-19T00:46:39;100432.16;;;20.86;100.00
43703;BME280;29304;56.146;40.396;2022-08-19T00:46:51;100430.94;;;20.91;100.00
43703;BME280;29304;56.146;40.396;2022-08-19T00:47:03;100429.97;;;20.92;100.00
43703;BME280;29304;56.146;40.396;2022-08-19T00:47:13;100429.97;;;20.92;100.00
43703;BME280;29304;56.146;40.396;2022-08-19T00:47:23;100428.53;;;20.88;100.00
43703;BME280;29304;56.146;40.396;2022-08-19T00:47:34;100426.50;;;20.80;100.00
43703;BME280;29304;56.146;40.396;2022-08-19T00:47:45;100421.22;;;20.80;100.00
43703;BME280;29304;56.146;40.396;2022-08-19T00:47:56;100431.19;;;20.76;100.00
43703;BME280;29304;56.146;40.396;2022-08-19T00:48:06;100430.97;;;20.79;100.00
43703;BME280;29304;56.146;40.396;2022-08-19T00:48:17;100433.63;;;20.79;100.00
43703;BME280;29304;56.146;40.396;2022-08-19T00:48:28;100406.75;;;20.61;100.00
43703;BME280;29304;56.146;40.396;2022-08-19T00:48:38;100428.44;;;20.78;100.00
43703;BME280;29304;56.146;40.396;2022-08-19T00:48:49;100433.38;;;20.82;100.00
43703;BME280;29304;56.146;40.396;2022-08-19T00:49:00;100425.41;;;20.82;100.00
43703;BME280;29304;56.146;40.396;2022-08-19T00:49:19;100433.50;;;20.81;100.00
43703;BME280;29304;56.146;40.396;2022-08-19T00:49:35;100430.25;;;20.77;100.00
43703;BME280;29304;56.146;40.396;2022-08-19T00:49:52;100432.53;;;20.82;100.00
43703;BME280;29304;56.146;40.396;2022-08-19T00:50:04;100432.78;;;20.79;100.00
43703;BME280;29304;56.146;40.396;2022-08-19T00:50:17;100431.31;;;20.75;100.00
43703;BME280;29304;56.146;40.396;2022-08-19T00:50:28;100435.56;;;20.77;100.00
43703;BME280;29304;56.146;40.396;2022-08-19T00:50:40;100423.00;;;20.68;100.00
43703;BME280;29304;56.146;40.396;2022-08-19T00:50:53;100437.13;;;20.80;100.00
43703;BME280;29304;56.146;40.396;2022-08-19T00:51:05;100441.72;;;20.78;100.00
43703;BME280;29304;56.146;40.396;2022-08-19T00:51:16;100426.75;;;20.77;100.00
43703;BME280;29304;56.146;40.396;2022-08-19T00:51:28;100436.28;;;20.79;100.00
43703;BME280;29304;56.146;40.396;2022-08-19T00:51:41;100437.25;;;20.78;100.00
43703;BME280;29304;56.146;40.396;2022-08-19T00:51:59;100439.28;;;20.75;100.00
43703;BME280;29304;56.146;40.396;2022-08-19T00:52:28;100431.81;;;20.80;100.00
43703;BME280;29304;56.146;40.396;2022-08-19T00:52:42;100430.25;;;20.77;100.00
43703;BME280;29304;56.146;40.396;2022-08-19T00:52:55;100438.22;;;20.77;100.00
43703;BME280;29304;56.146;40.396;2022-08-19T00:53:07;100440.00;;;20.77;100.00
43703;BME280;29304;56.146;40.396;2022-08-19T00:53:20;100425.81;;;20.66;100.00
43703;BME280;29304;56.146;40.396;2022-08-19T00:53:31;100422.19;;;20.67;100.00
43703;BME280;29304;56.146;40.396;2022-08-19T00:53:44;100425.41;;;20.71;100.00
43703;BME280;29304;56.146;40.396;2022-08-19T00:53:57;100433.13;;;20.74;100.00
43703;BME280;29304;56.146;40.396;2022-08-19T00:54:09;100435.19;;;20.70;100.00
43703;BME280;29304;56.146;40.396;2022-08-19T00:54:20;100437.00;;;20.70;100.00
43703;BME280;29304;56.146;40.396;2022-08-19T00:54:31;100440.25;;;20.74;100.00
43703;BME280;29304;56.146;40.396;2022-08-19T00:54:44;100432.91;;;20.66;100.00
43703;BME280;29304;56.146;40.396;2022-08-19T00:54:56;100430.97;;;20.68;100.00
43703;BME280;29304;56.146;40.396;2022-08-19T00:55:08;100436.16;;;20.69;100.00
43703;BME280;29304;56.146;40.396;2022-08-19T00:55:25;100433.63;;;20.68;100.00
43703;BME280;29304;56.146;40.396;2022-08-19T00:55:39;100430.00;;;20.69;100.00
43703;BME280;29304;56.146;40.396;2022-08-19T00:55:51;100430.88;;;20.69;100.00
43703;BME280;29304;56.146;40.396;2022-08-19T00:56:03;100435.91;;;20.73;100.00
43703;BME280;29304;56.146;40.396;2022-08-19T00:56:16;100431.59;;;20.71;100.00
43703;BME280;29304;56.146;40.396;2022-08-19T00:56:27;100430.00;;;20.69;100.00
43703;BME280;29304;56.146;40.396;2022-08-19T00:56:38;100438.22;;;20.66;100.00
43703;BME280;29304;56.146;40.396;2022-08-19T00:56:49;100419.31;;;20.59;100.00
43703;BME280;29304;56.146;40.396;2022-08-19T00:57:02;100442.69;;;20.65;100.00
43703;BME280;29304;56.146;40.396;2022-08-19T00:57:17;100432.78;;;20.67;100.00
43703;BME280;29304;56.146;40.396;2022-08-19T00:57:35;100434.34;;;20.70;100.00
43703;BME280;29304;56.146;40.396;2022-08-19T00:57:53;100429.88;;;20.70;100.00
43703;BME280;29304;56.146;40.396;2022-08-19T00:58:08;100417.22;;;20.63;100.00
43703;BME280;29304;56.146;40.396;2022-08-19T00:58:22;100430.97;;;20.68;100.00
43703;BME280;29304;56.146;40.396;2022-08-19T00:58:35;100424.94;;;20.66;100.00
43703;BME280;29304;56.146;40.396;2022-08-19T00:58:46;100431.69;;;20.70;100.00
43703;BME280;29304;56.146;40.396;2022-08-19T00:58:58;100430.97;;;20.68;100.00
43703;BME280;29304;56.146;40.396;2022-08-19T00:59:10;100433.63;;;20.68;100.00
43703;BME280;29304;56.146;40.396;2022-08-19T00:59:20;100412.00;;;20.51;100.00
43703;BME280;29304;56.146;40.396;2022-08-19T00:59:33;100406.78;;;20.50;100.00
43703;BME280;29304;56.146;40.396;2022-08-19T00:59:48;100438.94;;;20.68;100.00
43703;BME280;29304;56.146;40.396;2022-08-19T01:00:09;100424.84;;;20.67;100.00
43703;BME280;29304;56.146;40.396;2022-08-19T01:00:22;100424.94;;;20.66;100.00